Havre City County Airport
KHVR : rendu visible

Aérodrome :











RETROUVEZ-NOUS SUR...

 
LOGIN :

S'inscrire | Disclaimer

   EN    FR    IT 

 









Légende :    VFR   VFR Marginal   IFR   IFR Intensif   IFR Très Intensif
Visi : 
Plafond : 
>= 8 km
>= 3000ft
5 à 8 km
1000 à 3000 ft
1500m à 5 km
500 à 1000 ft
800 à 1500m
200 à 500 ft
< 800m
< 200 ft
Symboles :   Orages  Brouillard  Fortes neiges  Fortes précipitations  Vent > 20 kt






- Altitude de l'aérodrome : 2591 ft


KHVR - Havre City County

DERNIER METAR :
  • 181653Z AUTO 25008KT 10SM CLR M22/M28 A3047 RMK AO2 SLP397 T12221278

METARs EXPIRÉS :
  • 181553Z AUTO 24006KT 10SM CLR M23/M29 A3045 RMK AO2 SLP390 T12331289
  • 181453Z AUTO 25009KT 10SM CLR M24/M29 A3044 RMK AO2 SLP386 T12441294 50009
  • 181353Z AUTO 25008KT 10SM CLR M24/M29 A3044 RMK AO2 SLP389 T12441294

TAF KHVR
Valide du 18 à 12h jusqu'au 19 à 12h UTC


181133Z 1812/1912 24008KT P6SM SCT200
FM181600 VRB05KT P6SM SCT040 BKN070
PROB30 1900/1906 4SM -SN BR SCT025 BKN040
FM190600 07007KT P6SM SCT050 BKN100



MET'MAP, la Météo Aéronautique d'un coup d'oeil ! - Copyright ORBIFLY Décembre 2007 - Disclaimer

ORBIFLY MET'MAP TEAM :

Programmation & Développement : Alexandra Zaïnal
Sur une idée originale de : Baudouin d'Aumeries
Assistance à la programmation : Marc-Olivier Méhu
Soutien technique & logistique : Manuel Goepfert

Contact : metmap@orbifly.com




SOURCES & CREDITS :

   NOAA       Earth
Advisory